This is the latest recevied weather packets stored in our database for station/object YC0TBU-3. If no packets are shown the sender has not sent any weather packets the latest 10 day(s).
| Time | Temp. | Humidity | Pressure | Rain* | Wind** | Luminosity | Snow |
|---|---|---|---|---|---|---|---|
| 1787751326 | 32.22° C | 59% | 1016.7 hPa | - | - | - | - |
| 1787749514 | 32.22° C | 59% | 1016.1 hPa | - | - | - | - |
| 1787747862 | 32.22° C | 58% | 1015.6 hPa | - | - | - | - |
| 1787746034 | 32.78° C | 56% | 1016.1 hPa | - | - | - | - |
| 1787744372 | 32.78° C | 55% | 1014.5 hPa | - | - | - | - |
| 1787742634 | 33.33° C | 54% | 1015.2 hPa | - | - | - | - |
| 1787740958 | 33.89° C | 51% | 1014.7 hPa | - | - | - | - |
| 1787737555 | 34.44° C | 50% | 1014.3 hPa | - | - | - | - |
| 1787735832 | 35° C | 49% | 1010.7 hPa | - | - | - | - |
| 1787734132 | 36.11° C | 46% | 1013.7 hPa | - | - | - | - |
| 1787732443 | 36.67° C | 44% | 1013 hPa | - | - | - | - |
| 1787730733 | 36.67° C | 41% | 1013 hPa | - | - | - | - |
| 1787729032 | 36.11° C | 41% | 1013.2 hPa | - | - | - | - |
| 1787727342 | 36.67° C | 38% | 1013.5 hPa | - | - | - | - |
| 1787725632 | 37.22° C | 38% | 1013.9 hPa | - | - | - | - |
| 1787723932 | 36.67° C | 39% | 1015.1 hPa | - | - | - | - |
| 1787722233 | 36.67° C | 40% | 1015.2 hPa | - | - | - | - |
| 1787720534 | 35.56° C | 42% | 1016.5 hPa | - | - | - | - |
| 1787718832 | 34.44° C | 43% | 1017.5 hPa | - | - | - | - |
| 1787717142 | 33.89° C | 46% | 1017 hPa | - | - | - | - |
| 1787715432 | 33.33° C | 49% | 1016.8 hPa | - | - | - | - |
| 1787713732 | 32.78° C | 51% | 1017.9 hPa | - | - | - | - |
| 1787712032 | 31.67° C | 55% | 1018.2 hPa | - | - | - | - |
| 1787710332 | 31.11° C | 57% | 1017.6 hPa | - | - | - | - |
| 1787708634 | 31.11° C | 59% | 1017.4 hPa | - | - | - | - |
* Rain since midnight (hover to see other rain measurements)
** Current wind speed in m/s (hover to see current wind gust speed)